sensor_id;sensor_type;location;lat;lon;timestamp;P1;durP1;ratioP1;P2;durP2;ratioP2
73682;SDS011;72538;48.146;11.740;2023-11-22T00:00:07;17.63;;;13.23;;
73682;SDS011;72538;48.146;11.740;2023-11-22T00:02:35;16.03;;;13.03;;
73682;SDS011;72538;48.146;11.740;2023-11-22T00:05:01;15.50;;;11.77;;
73682;SDS011;72538;48.146;11.740;2023-11-22T00:07:26;14.93;;;12.70;;
73682;SDS011;72538;48.146;11.740;2023-11-22T00:09:55;15.40;;;12.23;;
73682;SDS011;72538;48.146;11.740;2023-11-22T00:12:21;13.77;;;11.20;;
73682;SDS011;72538;48.146;11.740;2023-11-22T00:14:51;16.90;;;11.37;;
73682;SDS011;72538;48.146;11.740;2023-11-22T00:17:17;13.10;;;11.07;;
73682;SDS011;72538;48.146;11.740;2023-11-22T00:19:43;14.00;;;10.77;;
73682;SDS011;72538;48.146;11.740;2023-11-22T00:22:14;12.50;;;10.50;;
73682;SDS011;72538;48.146;11.740;2023-11-22T00:24:39;11.50;;;10.27;;
73682;SDS011;72538;48.146;11.740;2023-11-22T00:27:05;14.23;;;11.10;;
73682;SDS011;72538;48.146;11.740;2023-11-22T00:29:31;13.90;;;12.40;;
73682;SDS011;72538;48.146;11.740;2023-11-22T00:31:59;15.00;;;10.17;;
73682;SDS011;72538;48.146;11.740;2023-11-22T00:34:25;11.70;;;9.90;;
73682;SDS011;72538;48.146;11.740;2023-11-22T00:36:51;11.63;;;9.97;;
73682;SDS011;72538;48.146;11.740;2023-11-22T00:39:18;11.07;;;9.70;;
73682;SDS011;72538;48.146;11.740;2023-11-22T00:41:44;11.13;;;10.03;;
73682;SDS011;72538;48.146;11.740;2023-11-22T00:44:10;11.53;;;9.80;;
73682;SDS011;72538;48.146;11.740;2023-11-22T00:46:37;12.57;;;9.27;;
73682;SDS011;72538;48.146;11.740;2023-11-22T00:49:03;11.73;;;9.23;;
73682;SDS011;72538;48.146;11.740;2023-11-22T00:51:30;11.20;;;8.83;;
73682;SDS011;72538;48.146;11.740;2023-11-22T00:53:57;9.73;;;8.40;;
73682;SDS011;72538;48.146;11.740;2023-11-22T00:56:24;10.00;;;9.00;;
73682;SDS011;72538;48.146;11.740;2023-11-22T00:58:49;10.17;;;9.10;;
73682;SDS011;72538;48.146;11.740;2023-11-22T01:01:16;11.47;;;9.10;;
73682;SDS011;72538;48.146;11.740;2023-11-22T01:03:43;11.70;;;9.13;;
73682;SDS011;72538;48.146;11.740;2023-11-22T01:06:09;10.67;;;9.37;;
73682;SDS011;72538;48.146;11.740;2023-11-22T01:08:35;13.50;;;9.83;;
73682;SDS011;72538;48.146;11.740;2023-11-22T01:11:02;13.80;;;10.57;;
73682;SDS011;72538;48.146;11.740;2023-11-22T01:13:34;11.70;;;8.93;;
73682;SDS011;72538;48.146;11.740;2023-11-22T01:16:02;12.80;;;9.73;;
73682;SDS011;72538;48.146;11.740;2023-11-22T01:18:28;12.67;;;10.57;;
73682;SDS011;72538;48.146;11.740;2023-11-22T01:20:53;12.27;;;10.23;;
73682;SDS011;72538;48.146;11.740;2023-11-22T01:23:19;11.43;;;9.07;;
73682;SDS011;72538;48.146;11.740;2023-11-22T01:25:45;14.27;;;10.10;;
73682;SDS011;72538;48.146;11.740;2023-11-22T01:28:11;12.87;;;9.93;;
73682;SDS011;72538;48.146;11.740;2023-11-22T01:30:36;11.70;;;10.23;;
73682;SDS011;72538;48.146;11.740;2023-11-22T01:33:04;12.90;;;9.97;;
73682;SDS011;72538;48.146;11.740;2023-11-22T01:35:29;12.47;;;9.70;;
73682;SDS011;72538;48.146;11.740;2023-11-22T01:37:55;14.37;;;9.03;;
73682;SDS011;72538;48.146;11.740;2023-11-22T01:40:23;13.57;;;9.63;;
73682;SDS011;72538;48.146;11.740;2023-11-22T01:42:48;10.47;;;8.73;;
73682;SDS011;72538;48.146;11.740;2023-11-22T01:45:14;12.93;;;9.20;;
73682;SDS011;72538;48.146;11.740;2023-11-22T01:47:40;15.23;;;9.47;;
73682;SDS011;72538;48.146;11.740;2023-11-22T01:50:07;7.70;;;6.90;;
73682;SDS011;72538;48.146;11.740;2023-11-22T01:52:34;9.93;;;7.03;;
73682;SDS011;72538;48.146;11.740;2023-11-22T01:55:01;7.50;;;6.57;;
73682;SDS011;72538;48.146;11.740;2023-11-22T01:57:35;6.63;;;5.93;;
73682;SDS011;72538;48.146;11.740;2023-11-22T02:00:02;8.33;;;6.17;;
73682;SDS011;72538;48.146;11.740;2023-11-22T02:02:32;5.40;;;4.73;;
73682;SDS011;72538;48.146;11.740;2023-11-22T02:04:59;5.80;;;5.07;;
73682;SDS011;72538;48.146;11.740;2023-11-22T02:07:26;5.77;;;5.20;;
73682;SDS011;72538;48.146;11.740;2023-11-22T02:09:53;6.77;;;6.07;;
73682;SDS011;72538;48.146;11.740;2023-11-22T02:12:19;7.10;;;6.40;;
73682;SDS011;72538;48.146;11.740;2023-11-22T02:14:46;9.73;;;7.23;;
73682;SDS011;72538;48.146;11.740;2023-11-22T02:17:12;6.67;;;6.03;;
73682;SDS011;72538;48.146;11.740;2023-11-22T02:19:38;6.63;;;5.77;;
73682;SDS011;72538;48.146;11.740;2023-11-22T02:22:04;6.73;;;5.90;;
73682;SDS011;72538;48.146;11.740;2023-11-22T02:24:31;5.50;;;4.70;;
73682;SDS011;72538;48.146;11.740;2023-11-22T02:26:59;5.80;;;5.20;;
73682;SDS011;72538;48.146;11.740;2023-11-22T02:29:25;4.37;;;3.97;;
73682;SDS011;72538;48.146;11.740;2023-11-22T02:31:51;4.20;;;3.80;;
73682;SDS011;72538;48.146;11.740;2023-11-22T02:34:17;3.67;;;3.37;;
73682;SDS011;72538;48.146;11.740;2023-11-22T02:36:43;3.57;;;3.27;;
73682;SDS011;72538;48.146;11.740;2023-11-22T02:39:09;3.70;;;3.23;;
73682;SDS011;72538;48.146;11.740;2023-11-22T02:41:36;3.73;;;3.43;;
73682;SDS011;72538;48.146;11.740;2023-11-22T02:44:03;4.00;;;3.60;;
73682;SDS011;72538;48.146;11.740;2023-11-22T02:46:29;4.40;;;3.93;;
73682;SDS011;72538;48.146;11.740;2023-11-22T02:48:57;4.00;;;3.60;;
73682;SDS011;72538;48.146;11.740;2023-11-22T02:51:23;4.93;;;4.13;;
73682;SDS011;72538;48.146;11.740;2023-11-22T02:53:49;4.93;;;4.47;;
73682;SDS011;72538;48.146;11.740;2023-11-22T02:56:16;4.33;;;3.93;;
73682;SDS011;72538;48.146;11.740;2023-11-22T02:58:42;5.30;;;4.80;;
73682;SDS011;72538;48.146;11.740;2023-11-22T03:01:08;5.17;;;4.47;;
73682;SDS011;72538;48.146;11.740;2023-11-22T03:03:34;5.17;;;4.60;;
73682;SDS011;72538;48.146;11.740;2023-11-22T03:06:00;5.93;;;5.17;;
73682;SDS011;72538;48.146;11.740;2023-11-22T03:08:28;5.87;;;5.30;;
73682;SDS011;72538;48.146;11.740;2023-11-22T03:10:54;5.13;;;4.63;;
73682;SDS011;72538;48.146;11.740;2023-11-22T03:13:20;5.63;;;5.13;;
73682;SDS011;72538;48.146;11.740;2023-11-22T03:15:46;5.20;;;4.63;;
73682;SDS011;72538;48.146;11.740;2023-11-22T03:18:13;5.67;;;5.00;;
73682;SDS011;72538;48.146;11.740;2023-11-22T03:20:39;4.50;;;4.13;;
73682;SDS011;72538;48.146;11.740;2023-11-22T03:23:07;5.80;;;4.87;;
73682;SDS011;72538;48.146;11.740;2023-11-22T03:25:35;4.67;;;4.20;;
73682;SDS011;72538;48.146;11.740;2023-11-22T03:28:01;5.03;;;4.53;;
73682;SDS011;72538;48.146;11.740;2023-11-22T03:30:27;6.17;;;5.57;;
73682;SDS011;72538;48.146;11.740;2023-11-22T03:32:53;5.40;;;4.90;;
73682;SDS011;72538;48.146;11.740;2023-11-22T03:35:21;5.20;;;4.33;;
73682;SDS011;72538;48.146;11.740;2023-11-22T03:37:47;5.33;;;4.83;;
73682;SDS011;72538;48.146;11.740;2023-11-22T03:40:13;5.20;;;4.50;;
73682;SDS011;72538;48.146;11.740;2023-11-22T03:42:40;5.70;;;5.10;;
73682;SDS011;72538;48.146;11.740;2023-11-22T03:45:07;6.57;;;5.73;;
73682;SDS011;72538;48.146;11.740;2023-11-22T03:47:34;6.17;;;5.30;;
73682;SDS011;72538;48.146;11.740;2023-11-22T03:50:02;5.17;;;4.67;;
73682;SDS011;72538;48.146;11.740;2023-11-22T03:52:31;5.17;;;4.70;;
73682;SDS011;72538;48.146;11.740;2023-11-22T03:54:57;6.97;;;5.27;;
73682;SDS011;72538;48.146;11.740;2023-11-22T03:57:24;5.33;;;4.83;;
73682;SDS011;72538;48.146;11.740;2023-11-22T03:59:50;5.90;;;5.30;;
73682;SDS011;72538;48.146;11.740;2023-11-22T04:02:16;4.90;;;4.40;;
73682;SDS011;72538;48.146;11.740;2023-11-22T04:04:42;5.27;;;4.70;;
73682;SDS011;72538;48.146;11.740;2023-11-22T04:07:08;4.63;;;4.23;;
73682;SDS011;72538;48.146;11.740;2023-11-22T04:09:34;4.70;;;4.30;;
73682;SDS011;72538;48.146;11.740;2023-11-22T04:12:01;5.63;;;4.70;;
73682;SDS011;72538;48.146;11.740;2023-11-22T04:14:27;5.47;;;4.33;;
73682;SDS011;72538;48.146;11.740;2023-11-22T04:16:53;5.23;;;4.23;;
73682;SDS011;72538;48.146;11.740;2023-11-22T04:19:19;4.73;;;4.30;;
73682;SDS011;72538;48.146;11.740;2023-11-22T04:21:46;5.30;;;4.80;;
73682;SDS011;72538;48.146;11.740;2023-11-22T04:24:12;5.30;;;4.30;;
73682;SDS011;72538;48.146;11.740;2023-11-22T04:26:38;4.73;;;4.23;;
73682;SDS011;72538;48.146;11.740;2023-11-22T04:29:04;5.23;;;4.70;;
73682;SDS011;72538;48.146;11.740;2023-11-22T04:31:30;5.47;;;4.50;;
73682;SDS011;72538;48.146;11.740;2023-11-22T04:33:56;5.33;;;4.60;;
73682;SDS011;72538;48.146;11.740;2023-11-22T04:36:23;4.70;;;4.30;;
73682;SDS011;72538;48.146;11.740;2023-11-22T04:38:50;8.13;;;4.97;;
73682;SDS011;72538;48.146;11.740;2023-11-22T04:41:16;6.17;;;5.10;;
73682;SDS011;72538;48.146;11.740;2023-11-22T04:43:44;6.40;;;5.80;;
73682;SDS011;72538;48.146;11.740;2023-11-22T04:46:10;5.87;;;5.33;;
73682;SDS011;72538;48.146;11.740;2023-11-22T04:48:36;4.90;;;4.47;;
73682;SDS011;72538;48.146;11.740;2023-11-22T04:51:04;5.57;;;4.70;;
73682;SDS011;72538;48.146;11.740;2023-11-22T04:53:31;4.87;;;4.37;;
73682;SDS011;72538;48.146;11.740;2023-11-22T04:55:58;6.07;;;4.97;;
73682;SDS011;72538;48.146;11.740;2023-11-22T04:58:25;4.80;;;4.30;;
73682;SDS011;72538;48.146;11.740;2023-11-22T05:00:51;5.53;;;4.73;;
73682;SDS011;72538;48.146;11.740;2023-11-22T05:03:17;4.77;;;4.23;;
73682;SDS011;72538;48.146;11.740;2023-11-22T05:05:44;5.30;;;4.80;;
73682;SDS011;72538;48.146;11.740;2023-11-22T05:08:11;5.03;;;4.53;;
73682;SDS011;72538;48.146;11.740;2023-11-22T05:10:37;5.17;;;4.67;;
73682;SDS011;72538;48.146;11.740;2023-11-22T05:13:03;4.47;;;4.07;;
73682;SDS011;72538;48.146;11.740;2023-11-22T05:15:31;5.10;;;4.60;;
73682;SDS011;72538;48.146;11.740;2023-11-22T05:17:57;4.57;;;4.17;;
73682;SDS011;72538;48.146;11.740;2023-11-22T05:20:24;4.40;;;4.00;;
73682;SDS011;72538;48.146;11.740;2023-11-22T05:22:50;5.20;;;4.43;;
73682;SDS011;72538;48.146;11.740;2023-11-22T05:25:16;5.47;;;4.70;;
73682;SDS011;72538;48.146;11.740;2023-11-22T05:27:42;4.47;;;4.07;;
73682;SDS011;72538;48.146;11.740;2023-11-22T05:30:08;5.00;;;4.50;;
73682;SDS011;72538;48.146;11.740;2023-11-22T05:36:47;4.60;;;4.03;;
73682;SDS011;72538;48.146;11.740;2023-11-22T05:39:14;4.83;;;4.40;;
73682;SDS011;72538;48.146;11.740;2023-11-22T05:41:40;4.93;;;4.00;;
73682;SDS011;72538;48.146;11.740;2023-11-22T05:44:06;5.00;;;4.40;;
73682;SDS011;72538;48.146;11.740;2023-11-22T05:46:34;4.90;;;4.40;;
73682;SDS011;72538;48.146;11.740;2023-11-22T05:49:00;4.27;;;3.87;;
73682;SDS011;72538;48.146;11.740;2023-11-22T05:51:26;4.17;;;3.77;;
73682;SDS011;72538;48.146;11.740;2023-11-22T05:53:52;4.33;;;3.93;;
73682;SDS011;72538;48.146;11.740;2023-11-22T05:56:18;5.97;;;3.80;;
73682;SDS011;72538;48.146;11.740;2023-11-22T05:58:44;4.27;;;3.80;;
73682;SDS011;72538;48.146;11.740;2023-11-22T06:01:11;4.17;;;3.77;;
73682;SDS011;72538;48.146;11.740;2023-11-22T06:03:38;4.53;;;4.03;;
73682;SDS011;72538;48.146;11.740;2023-11-22T06:06:07;4.07;;;3.67;;
73682;SDS011;72538;48.146;11.740;2023-11-22T06:08:34;4.20;;;3.80;;
73682;SDS011;72538;48.146;11.740;2023-11-22T06:11:00;4.50;;;4.00;;
73682;SDS011;72538;48.146;11.740;2023-11-22T06:13:26;4.10;;;3.70;;
73682;SDS011;72538;48.146;11.740;2023-11-22T06:15:53;5.13;;;4.40;;
73682;SDS011;72538;48.146;11.740;2023-11-22T06:18:19;4.47;;;4.07;;
73682;SDS011;72538;48.146;11.740;2023-11-22T06:20:45;5.00;;;3.87;;
73682;SDS011;72538;48.146;11.740;2023-11-22T06:23:13;4.23;;;3.83;;
73682;SDS011;72538;48.146;11.740;2023-11-22T06:25:56;4.40;;;4.00;;
73682;SDS011;72538;48.146;11.740;2023-11-22T06:28:22;4.87;;;3.90;;
73682;SDS011;72538;48.146;11.740;2023-11-22T06:30:48;5.00;;;4.23;;
73682;SDS011;72538;48.146;11.740;2023-11-22T06:33:14;5.00;;;4.60;;
73682;SDS011;72538;48.146;11.740;2023-11-22T06:35:41;4.77;;;4.30;;
73682;SDS011;72538;48.146;11.740;2023-11-22T06:38:08;7.07;;;4.50;;
73682;SDS011;72538;48.146;11.740;2023-11-22T06:40:34;6.60;;;4.80;;
73682;SDS011;72538;48.146;11.740;2023-11-22T06:43:00;5.30;;;4.37;;
73682;SDS011;72538;48.146;11.740;2023-11-22T06:45:27;5.90;;;5.30;;
73682;SDS011;72538;48.146;11.740;2023-11-22T06:47:53;5.13;;;4.63;;
73682;SDS011;72538;48.146;11.740;2023-11-22T06:50:19;5.03;;;4.43;;
73682;SDS011;72538;48.146;11.740;2023-11-22T06:52:46;5.13;;;4.63;;
73682;SDS011;72538;48.146;11.740;2023-11-22T06:55:14;5.60;;;5.00;;
73682;SDS011;72538;48.146;11.740;2023-11-22T06:57:41;5.50;;;5.00;;
73682;SDS011;72538;48.146;11.740;2023-11-22T07:00:07;6.50;;;5.10;;
73682;SDS011;72538;48.146;11.740;2023-11-22T07:02:35;5.93;;;5.33;;
73682;SDS011;72538;48.146;11.740;2023-11-22T07:05:02;5.90;;;5.30;;
73682;SDS011;72538;48.146;11.740;2023-11-22T07:07:30;6.10;;;5.50;;
73682;SDS011;72538;48.146;11.740;2023-11-22T07:09:56;6.07;;;5.13;;
73682;SDS011;72538;48.146;11.740;2023-11-22T07:12:24;6.90;;;5.10;;
73682;SDS011;72538;48.146;11.740;2023-11-22T07:14:51;5.67;;;5.17;;
73682;SDS011;72538;48.146;11.740;2023-11-22T07:17:17;5.80;;;5.10;;
73682;SDS011;72538;48.146;11.740;2023-11-22T07:19:47;5.40;;;4.90;;
73682;SDS011;72538;48.146;11.740;2023-11-22T07:22:14;5.30;;;4.77;;
73682;SDS011;72538;48.146;11.740;2023-11-22T07:24:45;5.60;;;5.10;;
73682;SDS011;72538;48.146;11.740;2023-11-22T07:27:13;6.03;;;5.23;;
73682;SDS011;72538;48.146;11.740;2023-11-22T07:29:40;5.40;;;4.90;;
73682;SDS011;72538;48.146;11.740;2023-11-22T07:32:07;6.00;;;5.40;;
73682;SDS011;72538;48.146;11.740;2023-11-22T07:34:35;7.17;;;5.30;;
73682;SDS011;72538;48.146;11.740;2023-11-22T07:37:01;5.93;;;5.33;;
73682;SDS011;72538;48.146;11.740;2023-11-22T07:39:27;5.57;;;5.07;;
73682;SDS011;72538;48.146;11.740;2023-11-22T07:41:54;5.60;;;5.10;;
73682;SDS011;72538;48.146;11.740;2023-11-22T07:44:22;5.23;;;4.73;;
73682;SDS011;72538;48.146;11.740;2023-11-22T07:46:50;5.23;;;4.77;;
73682;SDS011;72538;48.146;11.740;2023-11-22T07:49:19;5.57;;;5.07;;
73682;SDS011;72538;48.146;11.740;2023-11-22T07:51:45;6.50;;;5.70;;
73682;SDS011;72538;48.146;11.740;2023-11-22T07:54:11;5.87;;;4.73;;
73682;SDS011;72538;48.146;11.740;2023-11-22T07:56:41;7.43;;;4.80;;
73682;SDS011;72538;48.146;11.740;2023-11-22T07:59:12;5.80;;;5.20;;
73682;SDS011;72538;48.146;11.740;2023-11-22T08:01:41;5.30;;;4.80;;
73682;SDS011;72538;48.146;11.740;2023-11-22T08:04:07;5.47;;;4.97;;
73682;SDS011;72538;48.146;11.740;2023-11-22T08:06:33;4.60;;;4.20;;
73682;SDS011;72538;48.146;11.740;2023-11-22T08:08:59;5.53;;;4.80;;
73682;SDS011;72538;48.146;11.740;2023-11-22T08:11:27;5.47;;;4.97;;
73682;SDS011;72538;48.146;11.740;2023-11-22T08:13:54;5.20;;;4.70;;
73682;SDS011;72538;48.146;11.740;2023-11-22T08:16:25;4.33;;;3.93;;
73682;SDS011;72538;48.146;11.740;2023-11-22T08:18:51;5.27;;;4.77;;
73682;SDS011;72538;48.146;11.740;2023-11-22T08:21:17;4.97;;;4.47;;
73682;SDS011;72538;48.146;11.740;2023-11-22T08:23:47;5.27;;;4.77;;
73682;SDS011;72538;48.146;11.740;2023-11-22T08:26:14;5.93;;;5.33;;
73682;SDS011;72538;48.146;11.740;2023-11-22T08:28:40;6.70;;;6.00;;
73682;SDS011;72538;48.146;11.740;2023-11-22T08:31:07;8.57;;;6.30;;
73682;SDS011;72538;48.146;11.740;2023-11-22T08:33:36;9.73;;;8.00;;
73682;SDS011;72538;48.146;11.740;2023-11-22T08:36:04;7.63;;;6.63;;
73682;SDS011;72538;48.146;11.740;2023-11-22T08:38:31;6.70;;;6.00;;
73682;SDS011;72538;48.146;11.740;2023-11-22T08:41:03;7.30;;;6.37;;
73682;SDS011;72538;48.146;11.740;2023-11-22T08:43:31;7.00;;;6.33;;
73682;SDS011;72538;48.146;11.740;2023-11-22T08:45:58;7.47;;;6.67;;
73682;SDS011;72538;48.146;11.740;2023-11-22T08:48:25;7.40;;;6.60;;
73682;SDS011;72538;48.146;11.740;2023-11-22T08:50:52;7.30;;;6.63;;
73682;SDS011;72538;48.146;11.740;2023-11-22T08:53:19;7.07;;;6.37;;
73682;SDS011;72538;48.146;11.740;2023-11-22T08:55:47;7.03;;;6.33;;
73682;SDS011;72538;48.146;11.740;2023-11-22T08:58:13;8.43;;;7.63;;
73682;SDS011;72538;48.146;11.740;2023-11-22T09:00:40;8.87;;;6.87;;
73682;SDS011;72538;48.146;11.740;2023-11-22T09:03:07;8.20;;;7.30;;
73682;SDS011;72538;48.146;11.740;2023-11-22T09:05:34;6.43;;;5.83;;
73682;SDS011;72538;48.146;11.740;2023-11-22T09:08:00;5.60;;;5.10;;
73682;SDS011;72538;48.146;11.740;2023-11-22T09:10:26;5.53;;;5.03;;
73682;SDS011;72538;48.146;11.740;2023-11-22T09:12:53;5.50;;;5.00;;
73682;SDS011;72538;48.146;11.740;2023-11-22T09:15:19;6.70;;;4.97;;
73682;SDS011;72538;48.146;11.740;2023-11-22T09:17:47;4.90;;;4.50;;
73682;SDS011;72538;48.146;11.740;2023-11-22T09:20:13;6.00;;;5.33;;
73682;SDS011;72538;48.146;11.740;2023-11-22T09:22:43;7.17;;;6.57;;
73682;SDS011;72538;48.146;11.740;2023-11-22T09:25:14;7.20;;;6.50;;
73682;SDS011;72538;48.146;11.740;2023-11-22T09:27:43;6.93;;;6.33;;
73682;SDS011;72538;48.146;11.740;2023-11-22T09:30:11;7.17;;;6.50;;
73682;SDS011;72538;48.146;11.740;2023-11-22T09:32:39;6.47;;;5.87;;
73682;SDS011;72538;48.146;11.740;2023-11-22T09:35:05;6.87;;;5.80;;
73682;SDS011;72538;48.146;11.740;2023-11-22T09:37:31;6.97;;;6.03;;
73682;SDS011;72538;48.146;11.740;2023-11-22T09:39:58;7.00;;;6.30;;
73682;SDS011;72538;48.146;11.740;2023-11-22T09:42:25;6.00;;;5.10;;
73682;SDS011;72538;48.146;11.740;2023-11-22T09:44:53;6.40;;;5.47;;
73682;SDS011;72538;48.146;11.740;2023-11-22T09:47:19;6.63;;;5.77;;
73682;SDS011;72538;48.146;11.740;2023-11-22T09:49:45;6.20;;;5.37;;
73682;SDS011;72538;48.146;11.740;2023-11-22T09:52:13;6.23;;;5.47;;
73682;SDS011;72538;48.146;11.740;2023-11-22T09:54:41;5.77;;;5.27;;
73682;SDS011;72538;48.146;11.740;2023-11-22T09:57:09;6.60;;;5.67;;
73682;SDS011;72538;48.146;11.740;2023-11-22T09:59:36;6.30;;;5.70;;
73682;SDS011;72538;48.146;11.740;2023-11-22T10:02:04;5.40;;;4.87;;
73682;SDS011;72538;48.146;11.740;2023-11-22T10:04:32;5.40;;;4.60;;
73682;SDS011;72538;48.146;11.740;2023-11-22T10:07:00;6.40;;;5.83;;
73682;SDS011;72538;48.146;11.740;2023-11-22T10:09:27;5.80;;;5.30;;
73682;SDS011;72538;48.146;11.740;2023-11-22T10:11:58;5.43;;;4.93;;
73682;SDS011;72538;48.146;11.740;2023-11-22T10:14:24;5.53;;;5.03;;
73682;SDS011;72538;48.146;11.740;2023-11-22T10:16:59;4.93;;;4.53;;
73682;SDS011;72538;48.146;11.740;2023-11-22T10:19:26;4.70;;;4.30;;
73682;SDS011;72538;48.146;11.740;2023-11-22T10:22:02;5.13;;;4.50;;
73682;SDS011;72538;48.146;11.740;2023-11-22T10:24:31;4.60;;;4.20;;
73682;SDS011;72538;48.146;11.740;2023-11-22T10:27:00;6.70;;;5.10;;
73682;SDS011;72538;48.146;11.740;2023-11-22T10:29:26;6.20;;;5.00;;
73682;SDS011;72538;48.146;11.740;2023-11-22T10:31:53;4.23;;;3.93;;
73682;SDS011;72538;48.146;11.740;2023-11-22T10:34:25;4.90;;;4.33;;
73682;SDS011;72538;48.146;11.740;2023-11-22T10:36:49;6.70;;;4.70;;
73682;SDS011;72538;48.146;11.740;2023-11-22T10:39:21;5.77;;;4.57;;
73682;SDS011;72538;48.146;11.740;2023-11-22T10:41:48;5.23;;;4.43;;
73682;SDS011;72538;48.146;11.740;2023-11-22T10:44:16;5.43;;;4.93;;
73682;SDS011;72538;48.146;11.740;2023-11-22T10:46:42;6.00;;;5.07;;
73682;SDS011;72538;48.146;11.740;2023-11-22T10:49:08;5.43;;;4.93;;
73682;SDS011;72538;48.146;11.740;2023-11-22T10:51:34;5.80;;;5.27;;
73682;SDS011;72538;48.146;11.740;2023-11-22T10:54:02;5.97;;;5.43;;
73682;SDS011;72538;48.146;11.740;2023-11-22T10:56:35;6.70;;;6.00;;
73682;SDS011;72538;48.146;11.740;2023-11-22T10:58:59;6.67;;;5.97;;
73682;SDS011;72538;48.146;11.740;2023-11-22T11:01:27;7.90;;;7.20;;
73682;SDS011;72538;48.146;11.740;2023-11-22T11:04:03;7.63;;;6.87;;
73682;SDS011;72538;48.146;11.740;2023-11-22T11:06:33;9.20;;;6.27;;
73682;SDS011;72538;48.146;11.740;2023-11-22T11:09:01;5.77;;;5.07;;
73682;SDS011;72538;48.146;11.740;2023-11-22T11:11:29;5.30;;;4.33;;
73682;SDS011;72538;48.146;11.740;2023-11-22T11:13:55;4.53;;;4.00;;
73682;SDS011;72538;48.146;11.740;2023-11-22T11:16:22;13.67;;;9.40;;
73682;SDS011;72538;48.146;11.740;2023-11-22T11:18:49;13.80;;;7.00;;
73682;SDS011;72538;48.146;11.740;2023-11-22T11:21:15;4.53;;;4.10;;
73682;SDS011;72538;48.146;11.740;2023-11-22T11:23:42;5.30;;;3.70;;
73682;SDS011;72538;48.146;11.740;2023-11-22T11:26:17;4.03;;;3.60;;
73682;SDS011;72538;48.146;11.740;2023-11-22T11:28:45;3.83;;;3.53;;
73682;SDS011;72538;48.146;11.740;2023-11-22T11:31:12;4.53;;;4.13;;
73682;SDS011;72538;48.146;11.740;2023-11-22T11:33:53;14.27;;;9.33;;
73682;SDS011;72538;48.146;11.740;2023-11-22T11:36:12;8.27;;;5.67;;
73682;SDS011;72538;48.146;11.740;2023-11-22T11:38:38;7.03;;;4.33;;
73682;SDS011;72538;48.146;11.740;2023-11-22T11:41:11;8.60;;;6.10;;
73682;SDS011;72538;48.146;11.740;2023-11-22T11:43:45;6.23;;;4.57;;
73682;SDS011;72538;48.146;11.740;2023-11-22T11:46:12;4.00;;;3.60;;
73682;SDS011;72538;48.146;11.740;2023-11-22T11:48:50;4.10;;;3.70;;
73682;SDS011;72538;48.146;11.740;2023-11-22T11:51:14;5.20;;;3.90;;
73682;SDS011;72538;48.146;11.740;2023-11-22T11:53:41;4.70;;;4.30;;
73682;SDS011;72538;48.146;11.740;2023-11-22T11:56:07;4.00;;;3.70;;
73682;SDS011;72538;48.146;11.740;2023-11-22T11:58:34;4.30;;;3.90;;
73682;SDS011;72538;48.146;11.740;2023-11-22T12:01:00;4.80;;;4.40;;
73682;SDS011;72538;48.146;11.740;2023-11-22T12:03:26;4.37;;;3.97;;
73682;SDS011;72538;48.146;11.740;2023-11-22T12:05:52;4.90;;;4.50;;
73682;SDS011;72538;48.146;11.740;2023-11-22T12:08:18;4.37;;;3.67;;
73682;SDS011;72538;48.146;11.740;2023-11-22T12:10:45;4.43;;;4.03;;
73682;SDS011;72538;48.146;11.740;2023-11-22T12:13:18;4.57;;;4.17;;
73682;SDS011;72538;48.146;11.740;2023-11-22T12:15:46;4.93;;;4.13;;
73682;SDS011;72538;48.146;11.740;2023-11-22T12:18:13;4.17;;;3.87;;
73682;SDS011;72538;48.146;11.740;2023-11-22T12:20:39;3.90;;;3.60;;
73682;SDS011;72538;48.146;11.740;2023-11-22T12:23:05;4.50;;;4.20;;
73682;SDS011;72538;48.146;11.740;2023-11-22T12:25:35;4.03;;;3.67;;
73682;SDS011;72538;48.146;11.740;2023-11-22T12:28:01;4.03;;;3.63;;
73682;SDS011;72538;48.146;11.740;2023-11-22T12:33:02;3.07;;;2.73;;
73682;SDS011;72538;48.146;11.740;2023-11-22T12:35:30;3.10;;;2.90;;
73682;SDS011;72538;48.146;11.740;2023-11-22T12:37:58;3.57;;;3.30;;
73682;SDS011;72538;48.146;11.740;2023-11-22T12:40:26;5.23;;;3.77;;
73682;SDS011;72538;48.146;11.740;2023-11-22T12:42:52;4.27;;;3.97;;
73682;SDS011;72538;48.146;11.740;2023-11-22T12:45:20;4.53;;;4.10;;
73682;SDS011;72538;48.146;11.740;2023-11-22T12:47:46;4.27;;;3.93;;
73682;SDS011;72538;48.146;11.740;2023-11-22T12:52:59;6.23;;;4.67;;
73682;SDS011;72538;48.146;11.740;2023-11-22T12:55:26;5.00;;;4.60;;
73682;SDS011;72538;48.146;11.740;2023-11-22T12:57:58;5.00;;;4.57;;
73682;SDS011;72538;48.146;11.740;2023-11-22T13:00:29;18.73;;;9.63;;
73682;SDS011;72538;48.146;11.740;2023-11-22T13:02:56;4.87;;;4.47;;
73682;SDS011;72538;48.146;11.740;2023-11-22T13:05:25;5.97;;;5.30;;
73682;SDS011;72538;48.146;11.740;2023-11-22T13:07:51;5.00;;;4.03;;
73682;SDS011;72538;48.146;11.740;2023-11-22T13:10:18;4.77;;;4.37;;
73682;SDS011;72538;48.146;11.740;2023-11-22T13:12:44;5.33;;;4.90;;
73682;SDS011;72538;48.146;11.740;2023-11-22T13:15:11;70.00;;;26.77;;
73682;SDS011;72538;48.146;11.740;2023-11-22T13:17:38;5.40;;;4.90;;
73682;SDS011;72538;48.146;11.740;2023-11-22T13:20:08;5.10;;;4.70;;
73682;SDS011;72538;48.146;11.740;2023-11-22T13:22:40;5.27;;;4.20;;
73682;SDS011;72538;48.146;11.740;2023-11-22T13:25:12;4.80;;;4.40;;
73682;SDS011;72538;48.146;11.740;2023-11-22T13:27:36;5.47;;;4.30;;
73682;SDS011;72538;48.146;11.740;2023-11-22T13:30:03;5.10;;;4.47;;
73682;SDS011;72538;48.146;11.740;2023-11-22T13:32:31;5.20;;;4.77;;
73682;SDS011;72538;48.146;11.740;2023-11-22T13:34:57;4.97;;;4.47;;
73682;SDS011;72538;48.146;11.740;2023-11-22T13:37:24;9.80;;;5.30;;
73682;SDS011;72538;48.146;11.740;2023-11-22T13:39:50;5.03;;;4.57;;
73682;SDS011;72538;48.146;11.740;2023-11-22T13:42:16;4.97;;;4.50;;
73682;SDS011;72538;48.146;11.740;2023-11-22T13:44:43;4.27;;;3.87;;
73682;SDS011;72538;48.146;11.740;2023-11-22T13:47:13;5.30;;;4.80;;
73682;SDS011;72538;48.146;11.740;2023-11-22T13:49:42;5.43;;;4.63;;
73682;SDS011;72538;48.146;11.740;2023-11-22T13:52:09;5.03;;;4.37;;
73682;SDS011;72538;48.146;11.740;2023-11-22T13:54:35;4.63;;;4.10;;
73682;SDS011;72538;48.146;11.740;2023-11-22T13:57:03;4.57;;;4.27;;
73682;SDS011;72538;48.146;11.740;2023-11-22T13:59:29;6.87;;;4.17;;
73682;SDS011;72538;48.146;11.740;2023-11-22T14:01:56;4.40;;;4.00;;
73682;SDS011;72538;48.146;11.740;2023-11-22T14:04:22;5.83;;;5.03;;
73682;SDS011;72538;48.146;11.740;2023-11-22T14:06:49;4.57;;;4.17;;
73682;SDS011;72538;48.146;11.740;2023-11-22T14:09:15;4.60;;;4.20;;
73682;SDS011;72538;48.146;11.740;2023-11-22T14:11:42;4.70;;;4.30;;
73682;SDS011;72538;48.146;11.740;2023-11-22T14:14:08;4.77;;;4.20;;
73682;SDS011;72538;48.146;11.740;2023-11-22T14:16:35;4.63;;;4.27;;
73682;SDS011;72538;48.146;11.740;2023-11-22T14:19:03;4.87;;;4.47;;
73682;SDS011;72538;48.146;11.740;2023-11-22T14:21:31;4.70;;;4.27;;
73682;SDS011;72538;48.146;11.740;2023-11-22T14:23:58;5.27;;;4.87;;
73682;SDS011;72538;48.146;11.740;2023-11-22T14:26:24;8.40;;;4.73;;
73682;SDS011;72538;48.146;11.740;2023-11-22T14:28:52;8.20;;;6.70;;
73682;SDS011;72538;48.146;11.740;2023-11-22T14:31:18;10.97;;;7.10;;
73682;SDS011;72538;48.146;11.740;2023-11-22T14:33:44;5.70;;;5.17;;
73682;SDS011;72538;48.146;11.740;2023-11-22T14:36:10;5.17;;;4.77;;
73682;SDS011;72538;48.146;11.740;2023-11-22T14:38:36;5.33;;;4.83;;